createdAt,value
2022-12-12T00:00:48.615Z,-5.55
2022-12-12T00:03:56.005Z,-5.63
2022-12-12T00:07:03.485Z,-5.69
2022-12-12T00:10:10.339Z,-5.63
2022-12-12T00:13:17.860Z,-5.63
2022-12-12T00:16:24.899Z,-5.63
2022-12-12T00:19:32.088Z,-5.67
2022-12-12T00:22:39.671Z,-5.70
2022-12-12T00:25:46.468Z,-5.76
2022-12-12T00:28:53.517Z,-5.79
2022-12-12T00:32:00.668Z,-5.82
2022-12-12T00:35:07.519Z,-5.79
2022-12-12T00:38:14.668Z,-5.79
2022-12-12T00:41:21.882Z,-5.79
2022-12-12T00:44:28.561Z,-5.82
2022-12-12T00:47:36.131Z,-5.82
2022-12-12T00:50:43.218Z,-5.87
2022-12-12T00:53:50.224Z,-5.94
2022-12-12T00:56:57.411Z,-5.88
2022-12-12T01:00:04.427Z,-5.82
2022-12-12T01:03:11.476Z,-5.80
2022-12-12T01:06:18.668Z,-5.76
2022-12-12T01:09:25.649Z,-5.72
2022-12-12T01:12:32.706Z,-5.69
2022-12-12T01:15:39.943Z,-5.73
2022-12-12T01:18:47.360Z,-5.80
2022-12-12T01:21:54.348Z,-5.83
2022-12-12T01:25:01.482Z,-5.87
2022-12-12T01:28:08.884Z,-5.87
2022-12-12T01:31:11.922Z,-5.87
2022-12-12T01:34:19.702Z,-5.83
2022-12-12T01:37:27.380Z,-5.79
2022-12-12T01:40:34.473Z,-5.87
2022-12-12T01:43:42.050Z,-5.84
2022-12-12T01:46:49.966Z,-5.84
2022-12-12T01:49:56.910Z,-5.84
2022-12-12T01:53:04.538Z,-5.84
2022-12-12T01:56:11.860Z,-5.80
2022-12-12T01:59:19.144Z,-5.72
2022-12-12T02:02:26.941Z,-5.65
2022-12-12T02:05:34.173Z,-5.61
2022-12-12T02:08:41.602Z,-5.59
2022-12-12T02:11:49.134Z,-5.58
2022-12-12T02:14:56.449Z,-5.58
2022-12-12T02:18:04.100Z,-5.58
2022-12-12T02:21:11.974Z,-5.54
2022-12-12T02:24:25.640Z,-5.52
2022-12-12T02:27:23.126Z,-5.45
2022-12-12T02:30:30.135Z,-5.30
2022-12-12T02:33:37.791Z,-5.14
2022-12-12T02:36:45.502Z,-5.03
2022-12-12T02:39:52.491Z,-4.95
2022-12-12T02:43:00.263Z,-4.87
2022-12-12T02:46:07.657Z,-4.77
2022-12-12T02:49:15.002Z,-4.69
2022-12-12T02:52:22.904Z,-4.64
2022-12-12T02:55:33.753Z,-4.62
2022-12-12T02:58:33.086Z,-4.61
2022-12-12T03:01:40.137Z,-4.59
2022-12-12T03:04:47.495Z,-4.59
2022-12-12T03:07:54.955Z,-4.59
2022-12-12T03:11:02.451Z,-4.59
2022-12-12T03:14:10.237Z,-4.62
2022-12-12T03:17:17.506Z,-4.66
2022-12-12T03:20:25.001Z,-4.66
2022-12-12T03:23:33.023Z,-4.69
2022-12-12T03:26:40.564Z,-4.75
2022-12-12T03:29:48.129Z,-4.82
2022-12-12T03:32:55.688Z,-4.93
2022-12-12T03:36:02.724Z,-5.01
2022-12-12T03:39:10.207Z,-5.12
2022-12-12T03:42:17.985Z,-5.20
2022-12-12T03:45:25.168Z,-5.16
2022-12-12T03:48:33.428Z,-5.14
2022-12-12T03:51:40.855Z,-5.16
2022-12-12T03:54:48.147Z,-5.14
2022-12-12T03:57:55.765Z,-5.08
2022-12-12T04:01:03.329Z,-5.08
2022-12-12T04:04:10.822Z,-5.07
2022-12-12T04:07:18.623Z,-5.01
2022-12-12T04:10:26.079Z,-4.89
2022-12-12T04:13:33.389Z,-4.80
2022-12-12T04:16:41.012Z,-4.68
2022-12-12T04:19:48.784Z,-4.64
2022-12-12T04:22:56.252Z,-4.59
2022-12-12T04:26:03.942Z,-4.58
2022-12-12T04:29:11.666Z,-4.61
2022-12-12T04:32:18.730Z,-4.65
2022-12-12T04:35:26.736Z,-4.62
2022-12-12T04:38:34.807Z,-4.55
2022-12-12T04:41:41.798Z,-4.51
2022-12-12T04:44:49.457Z,-4.47
2022-12-12T04:47:57.330Z,-4.48
2022-12-12T04:51:04.313Z,-4.59
2022-12-12T04:54:12.012Z,-4.66
2022-12-12T04:57:19.737Z,-4.79
2022-12-12T05:00:26.818Z,-4.98
2022-12-12T05:03:34.646Z,-5.03
2022-12-12T05:06:42.135Z,-5.16
2022-12-12T05:09:49.849Z,-5.23
2022-12-12T05:12:57.568Z,-5.26
2022-12-12T05:16:04.978Z,-5.22
2022-12-12T05:19:12.548Z,-5.12
2022-12-12T05:22:20.149Z,-5.03
2022-12-12T05:25:27.428Z,-4.85
2022-12-12T05:28:34.700Z,-4.69
2022-12-12T05:31:42.129Z,-4.62
2022-12-12T05:34:49.869Z,-4.57
2022-12-12T05:37:57.382Z,-4.55
2022-12-12T05:41:04.472Z,-4.50
2022-12-12T05:44:12.213Z,-4.47
2022-12-12T05:47:20.105Z,-4.38
2022-12-12T05:50:27.956Z,-4.33
2022-12-12T05:53:42.491Z,-4.28
2022-12-12T05:56:38.935Z,-4.22
2022-12-12T05:59:46.432Z,-4.15
2022-12-12T06:02:54.395Z,-4.14
2022-12-12T06:06:01.351Z,-4.19
2022-12-12T06:09:09.194Z,-4.22
2022-12-12T06:12:16.832Z,-4.26
2022-12-12T06:15:23.910Z,-4.28
2022-12-12T06:18:31.538Z,-4.25
2022-12-12T06:21:38.990Z,-4.18
2022-12-12T06:24:46.425Z,-4.12
2022-12-12T06:27:54.216Z,-4.07
2022-12-12T06:31:02.780Z,-4.02
2022-12-12T06:34:11.831Z,-3.93
2022-12-12T06:37:19.123Z,-3.90
2022-12-12T06:40:26.691Z,-3.89
2022-12-12T06:43:34.484Z,-3.86
2022-12-12T06:46:42.077Z,-3.78
2022-12-12T06:49:49.383Z,-3.71
2022-12-12T06:52:57.120Z,-3.68
2022-12-12T06:56:04.176Z,-3.64
2022-12-12T06:59:11.600Z,-3.64
2022-12-12T07:02:23.260Z,-3.64
2022-12-12T07:05:23.165Z,-3.62
2022-12-12T07:08:30.960Z,-3.61
2022-12-12T07:11:38.544Z,-3.62
2022-12-12T07:14:45.562Z,-3.61
2022-12-12T07:17:53.616Z,-3.57
2022-12-12T07:21:01.067Z,-3.57
2022-12-12T07:24:08.384Z,-3.60
2022-12-12T07:27:21.469Z,-3.60
2022-12-12T07:30:18.654Z,-3.62
2022-12-12T07:33:35.780Z,-3.60
2022-12-12T07:36:31.644Z,-3.61
2022-12-12T07:39:38.644Z,-3.60
2022-12-12T07:42:45.827Z,-3.57
2022-12-12T07:45:53.497Z,-3.53
2022-12-12T07:49:01.123Z,-3.51
2022-12-12T07:52:08.658Z,-3.47
2022-12-12T07:55:16.312Z,-3.41
2022-12-12T07:58:24.028Z,-3.35
2022-12-12T08:01:31.717Z,-3.32
2022-12-12T08:04:39.179Z,-3.28
2022-12-12T08:07:46.914Z,-3.20
2022-12-12T08:10:54.121Z,-3.17
2022-12-12T08:14:01.963Z,-3.15
2022-12-12T08:17:09.929Z,-3.11
2022-12-12T08:20:17.527Z,-3.08
2022-12-12T08:23:25.717Z,-3.05
2022-12-12T08:26:33.749Z,-2.97
2022-12-12T08:29:40.988Z,-2.94
2022-12-12T08:32:49.153Z,-2.92
2022-12-12T08:35:56.557Z,-2.90
2022-12-12T08:39:03.886Z,-2.89
2022-12-12T08:42:11.524Z,-2.86
2022-12-12T08:45:19.023Z,-2.81
2022-12-12T08:48:26.678Z,-2.74
2022-12-12T08:51:34.499Z,-2.64
2022-12-12T08:54:41.895Z,-2.61
2022-12-12T08:57:49.461Z,-2.58
2022-12-12T09:00:57.312Z,-2.58
2022-12-12T09:04:04.778Z,-2.60
2022-12-12T09:07:12.196Z,-2.57
2022-12-12T09:10:19.676Z,-2.53
2022-12-12T09:13:27.525Z,-2.51
2022-12-12T09:16:35.212Z,-2.48
2022-12-12T09:19:42.543Z,-2.43
2022-12-12T09:22:50.564Z,-2.39
2022-12-12T09:25:58.037Z,-2.32
2022-12-12T09:29:05.919Z,-2.28
2022-12-12T09:32:13.786Z,-2.28
2022-12-12T09:35:21.365Z,-2.26
2022-12-12T09:38:28.898Z,-2.18
2022-12-12T09:41:36.427Z,-2.17
2022-12-12T09:44:43.434Z,-2.14
2022-12-12T09:47:51.170Z,-2.11
2022-12-12T09:50:59.390Z,-2.05
2022-12-12T09:54:06.465Z,-2.00
2022-12-12T09:57:14.333Z,-1.96
2022-12-12T10:00:22.318Z,-1.90
2022-12-12T10:03:29.304Z,-1.88
2022-12-12T10:06:38.106Z,-1.84
2022-12-12T10:09:46.015Z,-1.81
2022-12-12T10:12:53.463Z,-1.75
2022-12-12T10:16:00.934Z,-1.69
2022-12-12T10:19:08.572Z,-1.67
2022-12-12T10:22:16.525Z,-1.66
2022-12-12T10:25:23.854Z,-1.62
2022-12-12T10:28:31.727Z,-1.62
2022-12-12T10:31:39.357Z,-1.63
2022-12-12T10:34:46.558Z,-1.60
2022-12-12T10:37:54.218Z,-1.60
2022-12-12T10:41:01.626Z,-1.56
2022-12-12T10:44:09.241Z,-1.53
2022-12-12T10:47:17.113Z,-1.54
2022-12-12T10:50:24.331Z,-1.59
2022-12-12T10:53:31.942Z,-1.64
2022-12-12T10:56:39.930Z,-1.74
2022-12-12T10:59:47.184Z,-1.77
2022-12-12T11:02:59.762Z,-1.78
2022-12-12T11:05:57.424Z,-1.74
2022-12-12T11:09:04.619Z,-1.66
2022-12-12T11:12:12.607Z,-1.62
2022-12-12T11:15:20.275Z,-1.63
2022-12-12T11:18:28.269Z,-1.62
2022-12-12T11:21:35.968Z,-1.59
2022-12-12T11:24:43.579Z,-1.56
2022-12-12T11:27:50.988Z,-1.53
2022-12-12T11:30:58.040Z,-1.51
2022-12-12T11:34:05.873Z,-1.51
2022-12-12T11:37:13.631Z,-1.48
2022-12-12T11:40:20.730Z,-1.43
2022-12-12T11:43:28.568Z,-1.39
2022-12-12T11:46:36.170Z,-1.33
2022-12-12T11:49:43.654Z,-1.25
2022-12-12T11:52:51.557Z,-1.21
2022-12-12T11:55:59.089Z,-1.13
2022-12-12T11:59:06.384Z,-1.10
2022-12-12T12:02:14.266Z,-1.02
2022-12-12T12:05:22.124Z,-0.91
2022-12-12T12:08:29.717Z,-0.83
2022-12-12T12:11:37.196Z,-0.78
2022-12-12T12:14:45.008Z,-0.81
2022-12-12T12:17:52.343Z,-0.80
2022-12-12T12:20:59.974Z,-0.72
2022-12-12T12:24:07.685Z,-0.68
2022-12-12T12:27:15.065Z,-0.65
2022-12-12T12:30:22.474Z,-0.65
2022-12-12T12:33:30.218Z,-0.62
2022-12-12T12:36:37.266Z,-0.55
2022-12-12T12:39:44.957Z,-0.50
2022-12-12T12:42:52.733Z,-0.41
2022-12-12T12:45:59.938Z,-0.44
2022-12-12T12:49:08.011Z,-0.39
2022-12-12T12:52:15.718Z,-0.41
2022-12-12T12:55:22.758Z,-0.44
2022-12-12T12:58:30.358Z,-0.45
2022-12-12T13:01:37.759Z,-0.47
2022-12-12T13:04:45.049Z,-0.47
2022-12-12T13:07:52.888Z,-0.48
2022-12-12T13:11:00.049Z,-0.45
2022-12-12T13:14:07.469Z,-0.42
2022-12-12T13:17:15.141Z,-0.42
2022-12-12T13:20:22.580Z,-0.47
2022-12-12T13:23:30.056Z,-0.50
2022-12-12T13:26:37.429Z,-0.54
2022-12-12T13:29:45.525Z,-0.55
2022-12-12T13:32:53.245Z,-0.62
2022-12-12T13:36:00.364Z,-0.69
2022-12-12T13:39:08.103Z,-0.77
2022-12-12T13:42:15.752Z,-0.80
2022-12-12T13:45:22.840Z,-0.84
2022-12-12T13:48:30.634Z,-0.87
2022-12-12T13:51:37.893Z,-0.95
2022-12-12T13:54:45.144Z,-0.97
2022-12-12T13:57:53.032Z,-1.05
2022-12-12T14:01:00.061Z,-1.12
2022-12-12T14:04:07.549Z,-1.15
2022-12-12T14:07:15.680Z,-1.12
2022-12-12T14:10:23.113Z,-1.15
2022-12-12T14:13:30.405Z,-1.21
2022-12-12T14:16:37.446Z,-1.23
2022-12-12T14:19:44.904Z,-1.24
2022-12-12T14:22:52.299Z,-1.28
2022-12-12T14:25:59.928Z,-1.30
2022-12-12T14:29:07.980Z,-1.35
2022-12-12T14:32:15.265Z,-1.43
2022-12-12T14:35:22.725Z,-1.43
2022-12-12T14:38:30.476Z,-1.49
2022-12-12T14:41:37.541Z,-1.56
2022-12-12T14:44:50.692Z,-1.66
2022-12-12T14:47:47.578Z,-1.74
2022-12-12T14:50:54.929Z,-1.81
2022-12-12T14:54:02.609Z,-1.98
2022-12-12T14:57:10.097Z,-2.06
2022-12-12T15:00:17.568Z,-2.14
2022-12-12T15:03:25.349Z,-2.17
2022-12-12T15:06:32.356Z,-2.24
2022-12-12T15:09:39.857Z,-2.33
2022-12-12T15:12:47.206Z,-2.40
2022-12-12T15:15:55.135Z,-2.53
2022-12-12T15:19:02.782Z,-2.64
2022-12-12T15:22:10.206Z,-2.69
2022-12-12T15:25:18.294Z,-2.82
2022-12-12T15:28:25.650Z,-2.97
2022-12-12T15:31:33.355Z,-3.00
2022-12-12T15:34:41.298Z,-3.04
2022-12-12T15:37:48.530Z,-3.13
2022-12-12T15:40:56.341Z,-3.18
2022-12-12T15:44:04.241Z,-3.18
2022-12-12T15:47:11.394Z,-3.33
2022-12-12T15:50:19.070Z,-3.38
2022-12-12T15:53:26.780Z,-3.43
2022-12-12T15:56:33.871Z,-3.41
2022-12-12T15:59:41.816Z,-3.46
2022-12-12T16:02:49.191Z,-3.54
2022-12-12T16:05:56.445Z,-3.57
2022-12-12T16:09:04.100Z,-3.67
2022-12-12T16:12:11.656Z,-3.71
2022-12-12T16:15:19.045Z,-3.70
2022-12-12T16:18:26.971Z,-3.72
2022-12-12T16:21:34.265Z,-3.72
2022-12-12T16:24:41.684Z,-3.72
2022-12-12T16:27:49.157Z,-3.76
2022-12-12T16:30:56.756Z,-3.86
2022-12-12T16:34:04.293Z,-3.98
2022-12-12T16:37:11.685Z,-4.08
2022-12-12T16:40:19.537Z,-4.09
2022-12-12T16:43:26.553Z,-4.11
2022-12-12T16:46:34.139Z,-4.18
2022-12-12T16:49:41.636Z,-4.18
2022-12-12T16:52:49.013Z,-4.25
2022-12-12T16:55:56.958Z,-4.32
2022-12-12T16:59:04.244Z,-4.33
2022-12-12T17:02:11.778Z,-4.37
2022-12-12T17:05:19.377Z,-4.38
2022-12-12T17:08:26.550Z,-4.47
2022-12-12T17:11:34.342Z,-4.51
2022-12-12T17:14:41.579Z,-4.51
2022-12-12T17:17:48.827Z,-4.57
2022-12-12T17:20:56.428Z,-4.65
2022-12-12T17:24:03.752Z,-4.65
2022-12-12T17:27:11.356Z,-4.77
2022-12-12T17:30:19.188Z,-4.82
2022-12-12T17:33:26.297Z,-4.76
2022-12-12T17:36:34.182Z,-4.85
2022-12-12T17:39:42.099Z,-4.89
2022-12-12T17:42:49.157Z,-4.93
2022-12-12T17:45:57.192Z,-4.95
2022-12-12T17:49:04.816Z,-5.03
2022-12-12T17:52:12.258Z,-5.07
2022-12-12T17:55:51.686Z,-5.08
2022-12-12T17:58:29.534Z,-5.07
2022-12-12T18:01:26.709Z,-5.03
2022-12-12T18:04:34.982Z,-5.07
2022-12-12T18:07:42.839Z,-5.08
2022-12-12T18:10:50.250Z,-5.11
2022-12-12T18:13:58.252Z,-5.12
2022-12-12T18:17:05.900Z,-5.12
2022-12-12T18:20:13.944Z,-5.16
2022-12-12T18:23:21.624Z,-5.31
2022-12-12T18:26:29.550Z,-5.33
2022-12-12T18:29:37.161Z,-5.31
2022-12-12T18:32:44.403Z,-5.41
2022-12-12T18:35:52.210Z,-5.43
2022-12-12T18:38:59.792Z,-5.52
2022-12-12T18:42:07.288Z,-5.55
2022-12-12T18:45:15.200Z,-5.61
2022-12-12T18:48:22.772Z,-5.61
2022-12-12T18:51:30.246Z,-5.59
2022-12-12T18:54:37.816Z,-5.58
2022-12-12T18:57:45.413Z,-5.59
2022-12-12T19:00:52.889Z,-5.61
2022-12-12T19:04:01.729Z,-5.67
2022-12-12T19:07:00.995Z,-5.69
2022-12-12T19:10:08.394Z,-5.74
2022-12-12T19:13:15.886Z,-5.77
2022-12-12T19:16:23.498Z,-5.80
2022-12-12T19:19:31.093Z,-5.76
2022-12-12T19:22:46.581Z,-5.76
2022-12-12T19:25:43.386Z,-5.74
2022-12-12T19:28:51.095Z,-5.74
2022-12-12T19:31:58.901Z,-5.76
2022-12-12T19:35:06.815Z,-5.79
2022-12-12T19:38:17.384Z,-5.79
2022-12-12T19:41:16.899Z,-5.82
2022-12-12T19:44:25.306Z,-5.90
2022-12-12T19:47:33.056Z,-5.91
2022-12-12T19:50:40.630Z,-5.84
2022-12-12T19:53:49.297Z,-5.83
2022-12-12T19:56:56.818Z,-5.88
2022-12-12T20:00:05.066Z,-5.94
2022-12-12T20:03:12.478Z,-5.97
2022-12-12T20:06:19.538Z,-5.98
2022-12-12T20:09:27.548Z,-5.97
2022-12-12T20:12:34.961Z,-6.00
2022-12-12T20:15:42.281Z,-6.05
2022-12-12T20:18:49.675Z,-6.09
2022-12-12T20:22:02.243Z,-6.08
2022-12-12T20:24:59.995Z,-6.06
2022-12-12T20:28:07.334Z,-6.00
2022-12-12T20:31:14.897Z,-5.91
2022-12-12T20:34:22.442Z,-5.91
2022-12-12T20:37:29.701Z,-5.91
2022-12-12T20:40:37.616Z,-6.00
2022-12-12T20:43:45.459Z,-6.09
2022-12-12T20:46:52.729Z,-6.12
2022-12-12T20:50:00.840Z,-6.13
2022-12-12T20:53:08.530Z,-6.16
2022-12-12T20:56:16.029Z,-6.24
2022-12-12T20:59:23.412Z,-6.31
2022-12-12T21:02:31.595Z,-6.30
2022-12-12T21:05:40.186Z,-6.31
2022-12-12T21:08:47.889Z,-6.30
2022-12-12T21:11:56.065Z,-6.31
2022-12-12T21:15:03.466Z,-6.30
2022-12-12T21:18:11.038Z,-6.24
2022-12-12T21:21:19.165Z,-6.26
2022-12-12T21:24:26.672Z,-6.29
2022-12-12T21:27:34.340Z,-6.30
2022-12-12T21:30:41.862Z,-6.34
2022-12-12T21:33:49.273Z,-6.44
2022-12-12T21:36:57.235Z,-6.45
2022-12-12T21:40:05.357Z,-6.50
2022-12-12T21:43:12.652Z,-6.55
2022-12-12T21:46:20.697Z,-6.58
2022-12-12T21:49:28.555Z,-6.55
2022-12-12T21:52:35.953Z,-6.54
2022-12-12T21:55:44.034Z,-6.54
2022-12-12T21:58:51.192Z,-6.58
2022-12-12T22:01:59.366Z,-6.64
2022-12-12T22:05:08.211Z,-6.67
2022-12-12T22:08:08.277Z,-6.66
2022-12-12T22:11:40.247Z,-6.59
2022-12-12T22:14:21.430Z,-6.59
2022-12-12T22:17:28.622Z,-6.58
2022-12-12T22:20:36.457Z,-6.54
2022-12-12T22:23:44.051Z,-6.52
2022-12-12T22:26:51.769Z,-6.51
2022-12-12T22:29:59.538Z,-6.63
2022-12-12T22:33:06.465Z,-6.77
2022-12-12T22:36:14.452Z,-6.85
2022-12-12T22:39:22.967Z,-6.90
2022-12-12T22:42:30.614Z,-6.94
2022-12-12T22:45:38.307Z,-7.00
2022-12-12T22:48:46.001Z,-7.00
2022-12-12T22:51:53.637Z,-6.97
2022-12-12T22:55:01.597Z,-6.92
2022-12-12T22:58:09.372Z,-6.91
2022-12-12T23:01:16.959Z,-6.94
2022-12-12T23:04:24.945Z,-6.95
2022-12-12T23:07:32.456Z,-6.94
2022-12-12T23:10:39.777Z,-6.92
2022-12-12T23:13:47.525Z,-6.94
2022-12-12T23:16:55.466Z,-6.94
2022-12-12T23:20:02.949Z,-6.95
2022-12-12T23:23:10.303Z,-7.00
2022-12-12T23:26:18.227Z,-7.05
2022-12-12T23:29:25.735Z,-7.09
2022-12-12T23:32:32.989Z,-7.13
2022-12-12T23:35:41.119Z,-7.13
2022-12-12T23:38:48.327Z,-7.21
2022-12-12T23:41:56.577Z,-7.24
2022-12-12T23:45:04.698Z,-7.26
2022-12-12T23:48:11.832Z,-7.29
2022-12-12T23:51:19.669Z,-7.30
2022-12-12T23:54:27.588Z,-7.38
2022-12-12T23:57:35.193Z,-7.42
